This is the latest recevied weather packets stored in our database for station/object PP5CFL-13. If no packets are shown the sender has not sent any weather packets the latest 1 day(s).
| Time | Temp. | Humidity | Pressure | Rain* | Wind** | Luminosity | Snow |
|---|---|---|---|---|---|---|---|
| 1778076824 | 23.33° C | 97% | 1023 hPa | - | - | - | - |
| 1778076524 | 23.33° C | 96% | 1023 hPa | - | - | - | - |
| 1778076224 | 23.33° C | 96% | 1023.1 hPa | - | - | - | - |
| 1778075624 | 23.33° C | 96% | 1023.2 hPa | - | - | - | - |
| 1778075324 | 23.33° C | 94% | 1023.4 hPa | - | - | - | - |
| 1778075024 | 23.89° C | 92% | 1023.4 hPa | - | - | - | - |
| 1778074724 | 24.44° C | 89% | 1023.4 hPa | - | - | - | - |
| 1778074424 | 24.44° C | 89% | 1023.2 hPa | - | - | - | - |
| 1778074124 | 24.44° C | 91% | 1023.3 hPa | - | - | - | - |
| 1778073524 | 23.89° C | 93% | 1023.4 hPa | - | - | - | - |
| 1778072924 | 22.78° C | 10% | - | - | - | - | - |
| 1778072324 | 22.78° C | 99% | 1023.5 hPa | - | - | - | - |
| 1778071124 | 22.78° C | 99% | 1023.4 hPa | - | - | - | - |
| 1778066924 | 22.78° C | 95% | 1023.1 hPa | - | - | - | - |
| 1778065724 | 22.78° C | 95% | 1023 hPa | - | - | - | - |
| 1778054323 | 22.78° C | 93% | 1021.5 hPa | - | - | - | - |
| 1778053423 | 23.33° C | 92% | 1021.7 hPa | - | - | - | - |
| 1778052824 | 23.33° C | 92% | 1021.6 hPa | - | - | - | - |
| 1778052523 | 22.78° C | 93% | 1021.7 hPa | - | - | - | - |
| 1778051023 | 23.33° C | 92% | 1021.8 hPa | - | - | - | - |
| 1778050723 | 23.33° C | 92% | 1021.8 hPa | - | - | - | - |
| 1778049523 | 23.33° C | 93% | 1021.7 hPa | - | - | - | - |
| 1778049223 | 23.33° C | 92% | 1021.8 hPa | - | - | - | - |
| 1778048323 | 23.33° C | 93% | 1021.7 hPa | - | - | - | - |
| 1778048023 | 23.33° C | 92% | 1021.6 hPa | - | - | - | - |
* Rain since midnight (hover to see other rain measurements)
** Current wind speed in m/s (hover to see current wind gust speed)